sensor_id;sensor_type;location;lat;lon;timestamp;P1;durP1;ratioP1;P2;durP2;ratioP2
23288;SDS011;11813;50.834;4.280;2022-07-18T00:00:07;4.75;;;2.50;;
23288;SDS011;11813;50.834;4.280;2022-07-18T00:02:34;5.50;;;2.70;;
23288;SDS011;11813;50.834;4.280;2022-07-18T00:05:00;5.07;;;2.65;;
23288;SDS011;11813;50.834;4.280;2022-07-18T00:07:25;5.40;;;2.60;;
23288;SDS011;11813;50.834;4.280;2022-07-18T00:09:51;4.43;;;2.42;;
23288;SDS011;11813;50.834;4.280;2022-07-18T00:12:18;6.03;;;2.70;;
23288;SDS011;11813;50.834;4.280;2022-07-18T00:14:43;4.65;;;2.55;;
23288;SDS011;11813;50.834;4.280;2022-07-18T00:17:09;3.03;;;2.38;;
23288;SDS011;11813;50.834;4.280;2022-07-18T00:19:35;4.20;;;2.40;;
23288;SDS011;11813;50.834;4.280;2022-07-18T00:22:02;4.53;;;2.70;;
23288;SDS011;11813;50.834;4.280;2022-07-18T00:24:28;6.47;;;2.70;;
23288;SDS011;11813;50.834;4.280;2022-07-18T00:26:54;5.55;;;2.88;;
23288;SDS011;11813;50.834;4.280;2022-07-18T00:29:20;5.43;;;2.83;;
23288;SDS011;11813;50.834;4.280;2022-07-18T00:31:45;4.07;;;2.30;;
23288;SDS011;11813;50.834;4.280;2022-07-18T00:34:11;3.90;;;2.85;;
23288;SDS011;11813;50.834;4.280;2022-07-18T00:36:37;6.43;;;3.47;;
23288;SDS011;11813;50.834;4.280;2022-07-18T00:39:02;6.10;;;2.92;;
23288;SDS011;11813;50.834;4.280;2022-07-18T00:41:28;6.53;;;3.55;;
23288;SDS011;11813;50.834;4.280;2022-07-18T00:43:54;5.55;;;3.45;;
23288;SDS011;11813;50.834;4.280;2022-07-18T00:46:23;3.78;;;2.67;;
23288;SDS011;11813;50.834;4.280;2022-07-18T00:48:52;5.18;;;2.83;;
23288;SDS011;11813;50.834;4.280;2022-07-18T00:51:18;4.93;;;3.17;;
23288;SDS011;11813;50.834;4.280;2022-07-18T00:53:44;3.17;;;2.53;;
23288;SDS011;11813;50.834;4.280;2022-07-18T00:56:11;2.75;;;2.30;;
23288;SDS011;11813;50.834;4.280;2022-07-18T00:58:38;4.50;;;2.70;;
23288;SDS011;11813;50.834;4.280;2022-07-18T01:01:03;13.45;;;3.28;;
23288;SDS011;11813;50.834;4.280;2022-07-18T01:03:47;3.40;;;2.53;;
23288;SDS011;11813;50.834;4.280;2022-07-18T01:06:13;4.63;;;2.90;;
23288;SDS011;11813;50.834;4.280;2022-07-18T01:08:39;7.75;;;2.80;;
23288;SDS011;11813;50.834;4.280;2022-07-18T01:11:07;6.47;;;2.95;;
23288;SDS011;11813;50.834;4.280;2022-07-18T01:13:34;5.65;;;2.58;;
23288;SDS011;11813;50.834;4.280;2022-07-18T01:15:59;5.53;;;3.13;;
23288;SDS011;11813;50.834;4.280;2022-07-18T01:18:25;5.93;;;3.22;;
23288;SDS011;11813;50.834;4.280;2022-07-18T01:20:51;6.22;;;2.83;;
23288;SDS011;11813;50.834;4.280;2022-07-18T01:23:17;6.22;;;3.03;;
23288;SDS011;11813;50.834;4.280;2022-07-18T01:25:43;7.13;;;3.10;;
23288;SDS011;11813;50.834;4.280;2022-07-18T01:28:08;10.55;;;3.10;;
23288;SDS011;11813;50.834;4.280;2022-07-18T01:30:34;3.40;;;2.40;;
23288;SDS011;11813;50.834;4.280;2022-07-18T01:33:01;5.10;;;2.97;;
23288;SDS011;11813;50.834;4.280;2022-07-18T01:35:27;4.95;;;3.17;;
23288;SDS011;11813;50.834;4.280;2022-07-18T01:37:54;5.22;;;3.00;;
23288;SDS011;11813;50.834;4.280;2022-07-18T01:40:22;7.88;;;3.45;;
23288;SDS011;11813;50.834;4.280;2022-07-18T01:42:49;8.98;;;3.33;;
23288;SDS011;11813;50.834;4.280;2022-07-18T01:45:15;6.78;;;3.30;;
23288;SDS011;11813;50.834;4.280;2022-07-18T01:47:41;8.43;;;3.53;;
23288;SDS011;11813;50.834;4.280;2022-07-18T01:50:07;5.20;;;2.90;;
23288;SDS011;11813;50.834;4.280;2022-07-18T01:52:34;8.13;;;3.40;;
23288;SDS011;11813;50.834;4.280;2022-07-18T01:54:59;7.82;;;3.78;;
23288;SDS011;11813;50.834;4.280;2022-07-18T01:57:25;7.88;;;3.17;;
23288;SDS011;11813;50.834;4.280;2022-07-18T01:59:51;3.63;;;2.50;;
23288;SDS011;11813;50.834;4.280;2022-07-18T02:02:17;8.10;;;2.93;;
23288;SDS011;11813;50.834;4.280;2022-07-18T02:04:43;9.05;;;3.15;;
23288;SDS011;11813;50.834;4.280;2022-07-18T02:09:56;9.20;;;3.08;;
23288;SDS011;11813;50.834;4.280;2022-07-18T02:12:22;5.67;;;2.70;;
23288;SDS011;11813;50.834;4.280;2022-07-18T02:14:48;4.10;;;2.87;;
23288;SDS011;11813;50.834;4.280;2022-07-18T02:17:14;5.97;;;3.00;;
23288;SDS011;11813;50.834;4.280;2022-07-18T02:19:40;9.07;;;2.70;;
23288;SDS011;11813;50.834;4.280;2022-07-18T02:22:06;9.30;;;3.28;;
23288;SDS011;11813;50.834;4.280;2022-07-18T02:24:31;7.50;;;2.90;;
23288;SDS011;11813;50.834;4.280;2022-07-18T02:26:57;5.23;;;3.27;;
23288;SDS011;11813;50.834;4.280;2022-07-18T02:29:23;6.77;;;3.20;;
23288;SDS011;11813;50.834;4.280;2022-07-18T02:31:49;8.20;;;3.10;;
23288;SDS011;11813;50.834;4.280;2022-07-18T02:34:15;6.23;;;2.83;;
23288;SDS011;11813;50.834;4.280;2022-07-18T02:36:41;6.13;;;2.60;;
23288;SDS011;11813;50.834;4.280;2022-07-18T02:39:08;8.07;;;2.97;;
23288;SDS011;11813;50.834;4.280;2022-07-18T02:41:34;4.03;;;2.80;;
23288;SDS011;11813;50.834;4.280;2022-07-18T02:44:00;4.67;;;2.67;;
23288;SDS011;11813;50.834;4.280;2022-07-18T02:46:26;5.67;;;3.20;;
23288;SDS011;11813;50.834;4.280;2022-07-18T02:48:52;7.37;;;3.50;;
23288;SDS011;11813;50.834;4.280;2022-07-18T02:51:18;5.67;;;3.00;;
23288;SDS011;11813;50.834;4.280;2022-07-18T02:53:43;7.23;;;3.40;;
23288;SDS011;11813;50.834;4.280;2022-07-18T02:56:09;11.43;;;3.07;;
23288;SDS011;11813;50.834;4.280;2022-07-18T02:58:35;7.30;;;3.17;;
23288;SDS011;11813;50.834;4.280;2022-07-18T03:01:00;6.43;;;3.33;;
23288;SDS011;11813;50.834;4.280;2022-07-18T03:03:26;7.43;;;3.80;;
23288;SDS011;11813;50.834;4.280;2022-07-18T03:05:52;14.50;;;3.37;;
23288;SDS011;11813;50.834;4.280;2022-07-18T03:08:17;7.30;;;3.60;;
23288;SDS011;11813;50.834;4.280;2022-07-18T03:10:43;7.13;;;3.43;;
23288;SDS011;11813;50.834;4.280;2022-07-18T03:13:08;5.97;;;3.07;;
23288;SDS011;11813;50.834;4.280;2022-07-18T03:15:36;14.63;;;3.87;;
23288;SDS011;11813;50.834;4.280;2022-07-18T03:18:01;9.67;;;3.07;;
23288;SDS011;11813;50.834;4.280;2022-07-18T03:20:27;9.53;;;3.10;;
23288;SDS011;11813;50.834;4.280;2022-07-18T03:22:53;6.77;;;3.00;;
23288;SDS011;11813;50.834;4.280;2022-07-18T03:25:19;9.33;;;2.93;;
23288;SDS011;11813;50.834;4.280;2022-07-18T03:27:45;6.73;;;3.20;;
23288;SDS011;11813;50.834;4.280;2022-07-18T03:30:10;5.93;;;2.80;;
23288;SDS011;11813;50.834;4.280;2022-07-18T03:32:37;6.47;;;3.63;;
23288;SDS011;11813;50.834;4.280;2022-07-18T03:35:02;4.33;;;2.87;;
23288;SDS011;11813;50.834;4.280;2022-07-18T03:37:28;3.97;;;3.00;;
23288;SDS011;11813;50.834;4.280;2022-07-18T03:39:54;4.43;;;3.20;;
23288;SDS011;11813;50.834;4.280;2022-07-18T03:42:20;6.23;;;3.30;;
23288;SDS011;11813;50.834;4.280;2022-07-18T03:44:45;6.07;;;2.90;;
23288;SDS011;11813;50.834;4.280;2022-07-18T03:47:11;10.07;;;3.53;;
23288;SDS011;11813;50.834;4.280;2022-07-18T03:49:36;5.07;;;3.17;;
23288;SDS011;11813;50.834;4.280;2022-07-18T03:52:02;5.47;;;3.47;;
23288;SDS011;11813;50.834;4.280;2022-07-18T03:54:28;8.50;;;3.53;;
23288;SDS011;11813;50.834;4.280;2022-07-18T03:56:53;5.27;;;3.40;;
23288;SDS011;11813;50.834;4.280;2022-07-18T03:59:19;5.50;;;3.30;;
23288;SDS011;11813;50.834;4.280;2022-07-18T04:01:45;6.30;;;2.97;;
23288;SDS011;11813;50.834;4.280;2022-07-18T04:04:10;4.27;;;2.97;;
23288;SDS011;11813;50.834;4.280;2022-07-18T04:06:36;8.10;;;3.73;;
23288;SDS011;11813;50.834;4.280;2022-07-18T04:09:01;5.77;;;3.30;;
23288;SDS011;11813;50.834;4.280;2022-07-18T04:11:27;4.63;;;3.17;;
23288;SDS011;11813;50.834;4.280;2022-07-18T04:13:53;6.63;;;3.30;;
23288;SDS011;11813;50.834;4.280;2022-07-18T04:16:19;5.20;;;3.03;;
23288;SDS011;11813;50.834;4.280;2022-07-18T04:18:45;9.63;;;3.30;;
23288;SDS011;11813;50.834;4.280;2022-07-18T04:21:11;6.20;;;3.20;;
23288;SDS011;11813;50.834;4.280;2022-07-18T04:23:38;9.63;;;3.77;;
23288;SDS011;11813;50.834;4.280;2022-07-18T04:26:04;5.60;;;3.13;;
23288;SDS011;11813;50.834;4.280;2022-07-18T04:28:30;7.47;;;3.50;;
23288;SDS011;11813;50.834;4.280;2022-07-18T04:30:55;4.87;;;3.00;;
23288;SDS011;11813;50.834;4.280;2022-07-18T04:33:21;7.27;;;3.20;;
23288;SDS011;11813;50.834;4.280;2022-07-18T04:35:47;11.10;;;4.07;;
23288;SDS011;11813;50.834;4.280;2022-07-18T04:38:14;9.00;;;3.63;;
23288;SDS011;11813;50.834;4.280;2022-07-18T04:40:40;6.17;;;3.37;;
23288;SDS011;11813;50.834;4.280;2022-07-18T04:43:05;7.00;;;3.60;;
23288;SDS011;11813;50.834;4.280;2022-07-18T04:45:32;12.83;;;3.70;;
23288;SDS011;11813;50.834;4.280;2022-07-18T04:47:59;8.47;;;3.50;;
23288;SDS011;11813;50.834;4.280;2022-07-18T04:50:25;13.13;;;4.00;;
23288;SDS011;11813;50.834;4.280;2022-07-18T04:52:51;7.87;;;3.60;;
23288;SDS011;11813;50.834;4.280;2022-07-18T04:55:18;7.10;;;3.40;;
23288;SDS011;11813;50.834;4.280;2022-07-18T04:57:46;7.23;;;3.60;;
23288;SDS011;11813;50.834;4.280;2022-07-18T05:00:13;8.07;;;3.60;;
23288;SDS011;11813;50.834;4.280;2022-07-18T05:02:41;12.13;;;3.50;;
23288;SDS011;11813;50.834;4.280;2022-07-18T05:05:08;10.83;;;4.40;;
23288;SDS011;11813;50.834;4.280;2022-07-18T05:07:35;9.83;;;3.73;;
23288;SDS011;11813;50.834;4.280;2022-07-18T05:10:01;6.57;;;3.30;;
23288;SDS011;11813;50.834;4.280;2022-07-18T05:12:29;7.93;;;3.83;;
23288;SDS011;11813;50.834;4.280;2022-07-18T05:14:54;6.37;;;3.20;;
23288;SDS011;11813;50.834;4.280;2022-07-18T05:17:20;10.03;;;3.57;;
23288;SDS011;11813;50.834;4.280;2022-07-18T05:19:46;7.57;;;3.67;;
23288;SDS011;11813;50.834;4.280;2022-07-18T05:22:11;9.37;;;3.67;;
23288;SDS011;11813;50.834;4.280;2022-07-18T05:24:37;5.60;;;3.30;;
23288;SDS011;11813;50.834;4.280;2022-07-18T05:27:02;4.60;;;3.30;;
23288;SDS011;11813;50.834;4.280;2022-07-18T05:29:28;6.33;;;3.40;;
23288;SDS011;11813;50.834;4.280;2022-07-18T05:31:54;8.63;;;3.43;;
23288;SDS011;11813;50.834;4.280;2022-07-18T05:34:20;10.00;;;3.63;;
23288;SDS011;11813;50.834;4.280;2022-07-18T05:36:45;7.80;;;3.47;;
23288;SDS011;11813;50.834;4.280;2022-07-18T05:39:11;7.43;;;3.77;;
23288;SDS011;11813;50.834;4.280;2022-07-18T05:41:36;11.50;;;3.17;;
23288;SDS011;11813;50.834;4.280;2022-07-18T05:44:02;6.93;;;3.33;;
23288;SDS011;11813;50.834;4.280;2022-07-18T05:46:28;6.23;;;3.07;;
23288;SDS011;11813;50.834;4.280;2022-07-18T05:48:54;7.90;;;3.87;;
23288;SDS011;11813;50.834;4.280;2022-07-18T05:51:19;6.20;;;3.50;;
23288;SDS011;11813;50.834;4.280;2022-07-18T05:53:46;9.90;;;3.30;;
23288;SDS011;11813;50.834;4.280;2022-07-18T05:56:12;8.33;;;3.53;;
23288;SDS011;11813;50.834;4.280;2022-07-18T05:58:38;9.40;;;3.77;;
23288;SDS011;11813;50.834;4.280;2022-07-18T06:01:03;11.05;;;3.58;;
23288;SDS011;11813;50.834;4.280;2022-07-18T06:03:29;11.17;;;3.07;;
23288;SDS011;11813;50.834;4.280;2022-07-18T06:05:55;9.35;;;3.53;;
23288;SDS011;11813;50.834;4.280;2022-07-18T06:08:20;7.40;;;3.38;;
23288;SDS011;11813;50.834;4.280;2022-07-18T06:10:46;11.93;;;3.38;;
23288;SDS011;11813;50.834;4.280;2022-07-18T06:13:11;7.27;;;3.63;;
23288;SDS011;11813;50.834;4.280;2022-07-18T06:15:37;12.35;;;3.85;;
23288;SDS011;11813;50.834;4.280;2022-07-18T06:18:03;19.30;;;4.00;;
23288;SDS011;11813;50.834;4.280;2022-07-18T06:20:29;10.98;;;4.00;;
23288;SDS011;11813;50.834;4.280;2022-07-18T06:22:54;8.57;;;3.20;;
23288;SDS011;11813;50.834;4.280;2022-07-18T06:25:20;13.50;;;3.17;;
23288;SDS011;11813;50.834;4.280;2022-07-18T06:27:45;9.68;;;3.45;;
23288;SDS011;11813;50.834;4.280;2022-07-18T06:30:11;10.10;;;3.75;;
23288;SDS011;11813;50.834;4.280;2022-07-18T06:32:37;5.13;;;3.35;;
23288;SDS011;11813;50.834;4.280;2022-07-18T06:35:03;8.50;;;3.17;;
23288;SDS011;11813;50.834;4.280;2022-07-18T06:37:29;7.65;;;3.15;;
23288;SDS011;11813;50.834;4.280;2022-07-18T06:39:55;7.88;;;3.42;;
23288;SDS011;11813;50.834;4.280;2022-07-18T06:42:21;13.38;;;3.65;;
23288;SDS011;11813;50.834;4.280;2022-07-18T06:44:46;12.88;;;3.47;;
23288;SDS011;11813;50.834;4.280;2022-07-18T06:47:12;9.10;;;3.30;;
23288;SDS011;11813;50.834;4.280;2022-07-18T06:49:37;11.32;;;3.05;;
23288;SDS011;11813;50.834;4.280;2022-07-18T06:52:03;7.30;;;3.40;;
23288;SDS011;11813;50.834;4.280;2022-07-18T06:54:29;12.27;;;3.30;;
23288;SDS011;11813;50.834;4.280;2022-07-18T06:56:55;7.18;;;3.40;;
23288;SDS011;11813;50.834;4.280;2022-07-18T06:59:21;7.25;;;3.25;;
23288;SDS011;11813;50.834;4.280;2022-07-18T07:01:47;7.40;;;3.15;;
23288;SDS011;11813;50.834;4.280;2022-07-18T07:04:12;5.57;;;3.13;;
23288;SDS011;11813;50.834;4.280;2022-07-18T07:06:38;7.47;;;2.75;;
23288;SDS011;11813;50.834;4.280;2022-07-18T07:09:04;5.95;;;2.90;;
23288;SDS011;11813;50.834;4.280;2022-07-18T07:11:30;10.48;;;3.63;;
23288;SDS011;11813;50.834;4.280;2022-07-18T07:13:56;14.05;;;3.38;;
23288;SDS011;11813;50.834;4.280;2022-07-18T07:16:21;8.95;;;3.00;;
23288;SDS011;11813;50.834;4.280;2022-07-18T07:18:47;9.48;;;3.60;;
23288;SDS011;11813;50.834;4.280;2022-07-18T07:21:13;5.93;;;2.78;;
23288;SDS011;11813;50.834;4.280;2022-07-18T07:23:38;8.45;;;2.80;;
23288;SDS011;11813;50.834;4.280;2022-07-18T07:26:05;4.53;;;2.78;;
23288;SDS011;11813;50.834;4.280;2022-07-18T07:28:31;6.55;;;2.97;;
23288;SDS011;11813;50.834;4.280;2022-07-18T07:30:57;8.15;;;3.13;;
23288;SDS011;11813;50.834;4.280;2022-07-18T07:33:23;15.77;;;3.30;;
23288;SDS011;11813;50.834;4.280;2022-07-18T07:35:49;8.98;;;2.80;;
23288;SDS011;11813;50.834;4.280;2022-07-18T07:38:14;7.72;;;3.40;;
23288;SDS011;11813;50.834;4.280;2022-07-18T07:40:44;5.95;;;2.92;;
23288;SDS011;11813;50.834;4.280;2022-07-18T07:43:11;4.25;;;2.45;;
23288;SDS011;11813;50.834;4.280;2022-07-18T07:45:38;6.30;;;2.80;;
23288;SDS011;11813;50.834;4.280;2022-07-18T07:48:04;5.43;;;2.88;;
23288;SDS011;11813;50.834;4.280;2022-07-18T07:50:30;9.05;;;3.05;;
23288;SDS011;11813;50.834;4.280;2022-07-18T07:52:58;7.85;;;2.65;;
23288;SDS011;11813;50.834;4.280;2022-07-18T07:55:24;8.77;;;3.00;;
23288;SDS011;11813;50.834;4.280;2022-07-18T07:57:50;10.82;;;3.33;;
23288;SDS011;11813;50.834;4.280;2022-07-18T08:00:16;8.65;;;2.78;;
23288;SDS011;11813;50.834;4.280;2022-07-18T08:02:55;13.00;;;2.97;;
23288;SDS011;11813;50.834;4.280;2022-07-18T08:05:21;5.78;;;2.75;;
23288;SDS011;11813;50.834;4.280;2022-07-18T08:07:47;9.77;;;3.13;;
23288;SDS011;11813;50.834;4.280;2022-07-18T08:10:13;7.38;;;2.67;;
23288;SDS011;11813;50.834;4.280;2022-07-18T08:12:39;7.22;;;2.97;;
23288;SDS011;11813;50.834;4.280;2022-07-18T08:15:05;7.82;;;3.20;;
23288;SDS011;11813;50.834;4.280;2022-07-18T08:17:31;9.75;;;2.90;;
23288;SDS011;11813;50.834;4.280;2022-07-18T08:19:56;7.28;;;2.80;;
23288;SDS011;11813;50.834;4.280;2022-07-18T08:22:23;5.50;;;2.72;;
23288;SDS011;11813;50.834;4.280;2022-07-18T08:24:49;8.77;;;2.65;;
23288;SDS011;11813;50.834;4.280;2022-07-18T08:27:14;4.88;;;2.45;;
23288;SDS011;11813;50.834;4.280;2022-07-18T08:29:40;6.60;;;2.95;;
23288;SDS011;11813;50.834;4.280;2022-07-18T08:32:06;7.00;;;2.72;;
23288;SDS011;11813;50.834;4.280;2022-07-18T08:34:33;7.38;;;2.50;;
23288;SDS011;11813;50.834;4.280;2022-07-18T08:36:58;5.25;;;2.65;;
23288;SDS011;11813;50.834;4.280;2022-07-18T08:39:24;6.57;;;2.40;;
23288;SDS011;11813;50.834;4.280;2022-07-18T08:41:50;7.90;;;2.28;;
23288;SDS011;11813;50.834;4.280;2022-07-18T08:44:16;7.90;;;2.47;;
23288;SDS011;11813;50.834;4.280;2022-07-18T08:46:48;6.47;;;2.67;;
23288;SDS011;11813;50.834;4.280;2022-07-18T08:49:15;6.50;;;2.50;;
23288;SDS011;11813;50.834;4.280;2022-07-18T08:51:44;9.68;;;2.72;;
23288;SDS011;11813;50.834;4.280;2022-07-18T08:54:10;10.07;;;2.95;;
23288;SDS011;11813;50.834;4.280;2022-07-18T08:56:36;17.65;;;2.65;;
23288;SDS011;11813;50.834;4.280;2022-07-18T08:59:02;6.07;;;2.65;;
23288;SDS011;11813;50.834;4.280;2022-07-18T09:01:32;5.68;;;2.50;;
23288;SDS011;11813;50.834;4.280;2022-07-18T09:03:58;3.90;;;2.50;;
23288;SDS011;11813;50.834;4.280;2022-07-18T09:09:11;4.90;;;2.35;;
23288;SDS011;11813;50.834;4.280;2022-07-18T09:12:00;11.60;;;2.08;;
23288;SDS011;11813;50.834;4.280;2022-07-18T09:17:10;3.05;;;1.90;;
23288;SDS011;11813;50.834;4.280;2022-07-18T09:19:41;3.75;;;1.73;;
23288;SDS011;11813;50.834;4.280;2022-07-18T09:22:22;4.55;;;1.80;;
23288;SDS011;11813;50.834;4.280;2022-07-18T09:24:49;4.85;;;1.88;;
23288;SDS011;11813;50.834;4.280;2022-07-18T09:32:38;2.45;;;1.70;;
23288;SDS011;11813;50.834;4.280;2022-07-18T09:35:09;4.65;;;2.10;;
23288;SDS011;11813;50.834;4.280;2022-07-18T09:37:39;10.18;;;2.00;;
23288;SDS011;11813;50.834;4.280;2022-07-18T09:40:19;6.15;;;2.00;;
23288;SDS011;11813;50.834;4.280;2022-07-18T09:42:53;5.88;;;2.10;;
23288;SDS011;11813;50.834;4.280;2022-07-18T09:45:21;3.80;;;1.63;;
23288;SDS011;11813;50.834;4.280;2022-07-18T09:48:03;2.03;;;1.60;;
23288;SDS011;11813;50.834;4.280;2022-07-18T09:50:37;5.20;;;1.60;;
23288;SDS011;11813;50.834;4.280;2022-07-18T09:53:12;2.22;;;1.70;;
23288;SDS011;11813;50.834;4.280;2022-07-18T09:55:44;3.25;;;1.60;;
23288;SDS011;11813;50.834;4.280;2022-07-18T09:58:16;5.47;;;1.60;;
23288;SDS011;11813;50.834;4.280;2022-07-18T10:00:44;3.40;;;1.98;;
23288;SDS011;11813;50.834;4.280;2022-07-18T10:03:10;4.22;;;2.13;;
23288;SDS011;11813;50.834;4.280;2022-07-18T10:05:38;2.63;;;1.48;;
23288;SDS011;11813;50.834;4.280;2022-07-18T10:08:05;2.88;;;1.30;;
23288;SDS011;11813;50.834;4.280;2022-07-18T10:10:35;4.35;;;1.60;;
23288;SDS011;11813;50.834;4.280;2022-07-18T10:13:03;4.32;;;1.45;;
23288;SDS011;11813;50.834;4.280;2022-07-18T10:15:31;3.72;;;1.30;;
23288;SDS011;11813;50.834;4.280;2022-07-18T10:18:00;2.10;;;1.75;;
23288;SDS011;11813;50.834;4.280;2022-07-18T10:20:36;4.45;;;1.75;;
23288;SDS011;11813;50.834;4.280;2022-07-18T10:23:22;3.83;;;1.38;;
23288;SDS011;11813;50.834;4.280;2022-07-18T10:31:30;3.15;;;1.42;;
23288;SDS011;11813;50.834;4.280;2022-07-18T10:36:31;2.40;;;1.70;;
23288;SDS011;11813;50.834;4.280;2022-07-18T10:39:05;2.33;;;1.70;;
23288;SDS011;11813;50.834;4.280;2022-07-18T10:41:33;5.22;;;1.70;;
23288;SDS011;11813;50.834;4.280;2022-07-18T10:57:34;6.00;;;1.83;;
23288;SDS011;11813;50.834;4.280;2022-07-18T11:00:03;2.90;;;1.40;;
23288;SDS011;11813;50.834;4.280;2022-07-18T11:02:34;4.75;;;1.55;;
23288;SDS011;11813;50.834;4.280;2022-07-18T11:05:00;4.45;;;1.83;;
23288;SDS011;11813;50.834;4.280;2022-07-18T11:07:26;3.45;;;1.77;;
23288;SDS011;11813;50.834;4.280;2022-07-18T11:09:52;1.63;;;1.52;;
23288;SDS011;11813;50.834;4.280;2022-07-18T11:12:39;3.70;;;1.40;;
23288;SDS011;11813;50.834;4.280;2022-07-18T11:15:11;5.05;;;1.60;;
23288;SDS011;11813;50.834;4.280;2022-07-18T11:17:57;2.42;;;1.40;;
23288;SDS011;11813;50.834;4.280;2022-07-18T11:20:28;4.88;;;1.48;;
23288;SDS011;11813;50.834;4.280;2022-07-18T11:23:14;1.98;;;1.70;;
23288;SDS011;11813;50.834;4.280;2022-07-18T11:25:40;6.13;;;1.85;;
23288;SDS011;11813;50.834;4.280;2022-07-18T11:28:09;4.75;;;1.45;;
23288;SDS011;11813;50.834;4.280;2022-07-18T11:30:36;4.47;;;1.58;;
23288;SDS011;11813;50.834;4.280;2022-07-18T11:33:03;3.63;;;1.42;;
23288;SDS011;11813;50.834;4.280;2022-07-18T11:35:30;3.97;;;1.80;;
23288;SDS011;11813;50.834;4.280;2022-07-18T11:37:56;5.97;;;1.50;;
23288;SDS011;11813;50.834;4.280;2022-07-18T11:40:21;3.60;;;1.48;;
23288;SDS011;11813;50.834;4.280;2022-07-18T11:42:47;4.80;;;1.63;;
23288;SDS011;11813;50.834;4.280;2022-07-18T11:45:14;3.10;;;1.70;;
23288;SDS011;11813;50.834;4.280;2022-07-18T11:47:48;4.50;;;1.60;;
23288;SDS011;11813;50.834;4.280;2022-07-18T11:50:16;1.70;;;1.60;;
23288;SDS011;11813;50.834;4.280;2022-07-18T11:52:43;5.03;;;1.92;;
23288;SDS011;11813;50.834;4.280;2022-07-18T11:55:10;2.30;;;1.77;;
23288;SDS011;11813;50.834;4.280;2022-07-18T11:57:38;4.00;;;1.48;;
23288;SDS011;11813;50.834;4.280;2022-07-18T12:00:13;4.25;;;1.67;;
23288;SDS011;11813;50.834;4.280;2022-07-18T12:05:41;2.35;;;1.30;;
23288;SDS011;11813;50.834;4.280;2022-07-18T12:16:59;5.32;;;1.70;;
23288;SDS011;11813;50.834;4.280;2022-07-18T12:19:07;4.70;;;1.40;;
23288;SDS011;11813;50.834;4.280;2022-07-18T12:24:22;6.82;;;1.52;;
23288;SDS011;11813;50.834;4.280;2022-07-18T12:27:15;4.15;;;1.45;;
23288;SDS011;11813;50.834;4.280;2022-07-18T12:32:38;3.70;;;1.42;;
23288;SDS011;11813;50.834;4.280;2022-07-18T12:35:23;4.50;;;1.60;;
23288;SDS011;11813;50.834;4.280;2022-07-18T12:37:51;6.40;;;2.08;;
23288;SDS011;11813;50.834;4.280;2022-07-18T12:40:20;2.60;;;1.50;;
23288;SDS011;11813;50.834;4.280;2022-07-18T12:42:46;2.35;;;1.50;;
23288;SDS011;11813;50.834;4.280;2022-07-18T12:45:12;5.10;;;1.50;;
23288;SDS011;11813;50.834;4.280;2022-07-18T12:47:38;5.32;;;1.60;;
23288;SDS011;11813;50.834;4.280;2022-07-18T12:50:05;3.00;;;1.60;;
23288;SDS011;11813;50.834;4.280;2022-07-18T12:52:32;5.70;;;1.73;;
23288;SDS011;11813;50.834;4.280;2022-07-18T12:54:58;1.58;;;1.48;;
23288;SDS011;11813;50.834;4.280;2022-07-18T12:57:24;10.07;;;2.10;;
23288;SDS011;11813;50.834;4.280;2022-07-18T12:59:50;5.40;;;1.60;;
23288;SDS011;11813;50.834;4.280;2022-07-18T13:02:16;2.90;;;1.48;;
23288;SDS011;11813;50.834;4.280;2022-07-18T13:04:41;5.00;;;1.90;;
23288;SDS011;11813;50.834;4.280;2022-07-18T13:07:07;4.25;;;1.60;;
23288;SDS011;11813;50.834;4.280;2022-07-18T13:09:33;1.67;;;1.30;;
23288;SDS011;11813;50.834;4.280;2022-07-18T13:11:59;3.38;;;1.52;;
23288;SDS011;11813;50.834;4.280;2022-07-18T13:14:25;2.10;;;1.67;;
23288;SDS011;11813;50.834;4.280;2022-07-18T13:16:51;3.00;;;1.58;;
23288;SDS011;11813;50.834;4.280;2022-07-18T13:19:18;5.13;;;1.70;;
23288;SDS011;11813;50.834;4.280;2022-07-18T13:21:44;4.18;;;1.70;;
23288;SDS011;11813;50.834;4.280;2022-07-18T13:24:11;2.45;;;1.50;;
23288;SDS011;11813;50.834;4.280;2022-07-18T13:26:38;2.95;;;1.55;;
23288;SDS011;11813;50.834;4.280;2022-07-18T13:29:04;5.10;;;1.60;;
23288;SDS011;11813;50.834;4.280;2022-07-18T13:31:30;6.10;;;1.80;;
23288;SDS011;11813;50.834;4.280;2022-07-18T13:33:56;4.93;;;1.50;;
23288;SDS011;11813;50.834;4.280;2022-07-18T13:36:22;2.03;;;1.50;;
23288;SDS011;11813;50.834;4.280;2022-07-18T13:38:48;2.85;;;1.70;;
23288;SDS011;11813;50.834;4.280;2022-07-18T13:41:13;2.67;;;1.60;;
23288;SDS011;11813;50.834;4.280;2022-07-18T13:43:39;2.30;;;1.88;;
23288;SDS011;11813;50.834;4.280;2022-07-18T13:46:09;3.67;;;1.50;;
23288;SDS011;11813;50.834;4.280;2022-07-18T13:48:36;2.70;;;1.58;;
23288;SDS011;11813;50.834;4.280;2022-07-18T13:51:03;7.35;;;1.17;;
23288;SDS011;11813;50.834;4.280;2022-07-18T13:53:29;1.80;;;1.30;;
23288;SDS011;11813;50.834;4.280;2022-07-18T13:55:55;4.50;;;1.70;;
23288;SDS011;11813;50.834;4.280;2022-07-18T13:58:20;4.47;;;1.77;;
23288;SDS011;11813;50.834;4.280;2022-07-18T14:00:46;2.03;;;1.45;;
23288;SDS011;11813;50.834;4.280;2022-07-18T14:03:12;4.38;;;1.90;;
23288;SDS011;11813;50.834;4.280;2022-07-18T14:05:38;2.63;;;1.50;;
23288;SDS011;11813;50.834;4.280;2022-07-18T14:08:04;3.33;;;1.42;;
23288;SDS011;11813;50.834;4.280;2022-07-18T14:10:30;4.05;;;1.60;;
23288;SDS011;11813;50.834;4.280;2022-07-18T14:12:56;1.45;;;1.30;;
23288;SDS011;11813;50.834;4.280;2022-07-18T14:15:22;5.85;;;1.63;;
23288;SDS011;11813;50.834;4.280;2022-07-18T14:17:48;4.15;;;1.33;;
23288;SDS011;11813;50.834;4.280;2022-07-18T14:20:14;4.55;;;1.40;;
23288;SDS011;11813;50.834;4.280;2022-07-18T14:22:41;5.82;;;1.27;;
23288;SDS011;11813;50.834;4.280;2022-07-18T14:25:09;2.03;;;1.40;;
23288;SDS011;11813;50.834;4.280;2022-07-18T14:27:35;4.93;;;1.35;;
23288;SDS011;11813;50.834;4.280;2022-07-18T14:30:01;2.08;;;1.60;;
23288;SDS011;11813;50.834;4.280;2022-07-18T14:32:29;2.13;;;1.20;;
23288;SDS011;11813;50.834;4.280;2022-07-18T14:34:54;2.58;;;1.25;;
23288;SDS011;11813;50.834;4.280;2022-07-18T14:37:20;2.08;;;1.75;;
23288;SDS011;11813;50.834;4.280;2022-07-18T14:39:45;1.50;;;1.30;;
23288;SDS011;11813;50.834;4.280;2022-07-18T14:42:11;7.43;;;1.38;;
23288;SDS011;11813;50.834;4.280;2022-07-18T14:44:38;2.40;;;1.60;;
23288;SDS011;11813;50.834;4.280;2022-07-18T14:47:03;2.00;;;1.42;;
23288;SDS011;11813;50.834;4.280;2022-07-18T14:49:29;4.38;;;1.70;;
23288;SDS011;11813;50.834;4.280;2022-07-18T14:51:55;3.42;;;1.20;;
23288;SDS011;11813;50.834;4.280;2022-07-18T14:54:21;1.30;;;1.15;;
23288;SDS011;11813;50.834;4.280;2022-07-18T14:56:47;4.35;;;1.40;;
23288;SDS011;11813;50.834;4.280;2022-07-18T14:59:12;2.35;;;1.17;;
23288;SDS011;11813;50.834;4.280;2022-07-18T15:01:38;2.28;;;1.60;;
23288;SDS011;11813;50.834;4.280;2022-07-18T15:04:04;2.45;;;1.13;;
23288;SDS011;11813;50.834;4.280;2022-07-18T15:06:29;2.03;;;1.40;;
23288;SDS011;11813;50.834;4.280;2022-07-18T15:08:55;3.28;;;1.95;;
23288;SDS011;11813;50.834;4.280;2022-07-18T15:11:20;1.30;;;1.20;;
23288;SDS011;11813;50.834;4.280;2022-07-18T15:13:48;2.40;;;1.50;;
23288;SDS011;11813;50.834;4.280;2022-07-18T15:16:15;5.95;;;1.73;;
23288;SDS011;11813;50.834;4.280;2022-07-18T15:18:41;2.40;;;1.50;;
23288;SDS011;11813;50.834;4.280;2022-07-18T15:21:07;5.75;;;1.30;;
23288;SDS011;11813;50.834;4.280;2022-07-18T15:23:32;1.95;;;1.42;;
23288;SDS011;11813;50.834;4.280;2022-07-18T15:25:58;3.22;;;1.85;;
23288;SDS011;11813;50.834;4.280;2022-07-18T15:28:23;3.20;;;1.40;;
23288;SDS011;11813;50.834;4.280;2022-07-18T15:30:49;2.60;;;1.23;;
23288;SDS011;11813;50.834;4.280;2022-07-18T15:33:15;4.72;;;1.40;;
23288;SDS011;11813;50.834;4.280;2022-07-18T15:35:42;2.70;;;1.35;;